sensor_id;sensor_type;location;lat;lon;timestamp;P1;durP1;ratioP1;P2;durP2;ratioP2
57599;SDS011;43426;43.594;24.334;2023-04-25T00:01:20;2.90;;;2.70;;
57599;SDS011;43426;43.594;24.334;2023-04-25T00:03:46;2.67;;;2.47;;
57599;SDS011;43426;43.594;24.334;2023-04-25T00:06:12;2.78;;;2.58;;
57599;SDS011;43426;43.594;24.334;2023-04-25T00:11:04;2.72;;;2.53;;
57599;SDS011;43426;43.594;24.334;2023-04-25T00:13:29;2.92;;;2.72;;
57599;SDS011;43426;43.594;24.334;2023-04-25T00:15:55;3.05;;;2.85;;
57599;SDS011;43426;43.594;24.334;2023-04-25T00:18:21;2.88;;;2.40;;
57599;SDS011;43426;43.594;24.334;2023-04-25T00:20:47;3.80;;;2.35;;
57599;SDS011;43426;43.594;24.334;2023-04-25T00:25:46;2.47;;;2.28;;
57599;SDS011;43426;43.594;24.334;2023-04-25T00:28:13;3.72;;;2.75;;
57599;SDS011;43426;43.594;24.334;2023-04-25T00:30:39;3.25;;;2.67;;
57599;SDS011;43426;43.594;24.334;2023-04-25T00:33:05;3.30;;;3.00;;
57599;SDS011;43426;43.594;24.334;2023-04-25T00:35:31;2.70;;;2.50;;
57599;SDS011;43426;43.594;24.334;2023-04-25T00:37:57;2.65;;;2.40;;
57599;SDS011;43426;43.594;24.334;2023-04-25T00:40:22;3.05;;;2.22;;
57599;SDS011;43426;43.594;24.334;2023-04-25T00:42:48;3.10;;;2.28;;
57599;SDS011;43426;43.594;24.334;2023-04-25T00:47:40;3.17;;;2.67;;
57599;SDS011;43426;43.594;24.334;2023-04-25T00:50:08;2.38;;;2.22;;
57599;SDS011;43426;43.594;24.334;2023-04-25T00:52:34;5.13;;;2.45;;
57599;SDS011;43426;43.594;24.334;2023-04-25T00:55:00;2.63;;;2.42;;
57599;SDS011;43426;43.594;24.334;2023-04-25T00:57:26;2.42;;;2.10;;
57599;SDS011;43426;43.594;24.334;2023-04-25T00:59:52;2.35;;;2.15;;
57599;SDS011;43426;43.594;24.334;2023-04-25T01:04:44;2.07;;;1.97;;
57599;SDS011;43426;43.594;24.334;2023-04-25T01:07:09;1.98;;;1.88;;
57599;SDS011;43426;43.594;24.334;2023-04-25T01:09:38;1.90;;;1.80;;
57599;SDS011;43426;43.594;24.334;2023-04-25T01:12:03;2.22;;;2.03;;
57599;SDS011;43426;43.594;24.334;2023-04-25T01:14:29;2.20;;;2.00;;
57599;SDS011;43426;43.594;24.334;2023-04-25T01:16:54;3.47;;;2.10;;
57599;SDS011;43426;43.594;24.334;2023-04-25T01:21:46;1.98;;;1.88;;
57599;SDS011;43426;43.594;24.334;2023-04-25T01:24:12;1.85;;;1.75;;
57599;SDS011;43426;43.594;24.334;2023-04-25T01:26:38;1.70;;;1.60;;
57599;SDS011;43426;43.594;24.334;2023-04-25T01:29:09;3.75;;;1.50;;
57599;SDS011;43426;43.594;24.334;2023-04-25T01:34:01;1.23;;;1.13;;
57599;SDS011;43426;43.594;24.334;2023-04-25T01:36:26;5.00;;;1.63;;
57599;SDS011;43426;43.594;24.334;2023-04-25T01:41:18;1.30;;;1.20;;
57599;SDS011;43426;43.594;24.334;2023-04-25T01:43:44;3.33;;;1.40;;
57599;SDS011;43426;43.594;24.334;2023-04-25T01:46:10;1.10;;;1.10;;
57599;SDS011;43426;43.594;24.334;2023-04-25T01:48:36;2.22;;;1.20;;
57599;SDS011;43426;43.594;24.334;2023-04-25T01:51:04;2.08;;;1.20;;
57599;SDS011;43426;43.594;24.334;2023-04-25T01:53:30;1.15;;;1.05;;
57599;SDS011;43426;43.594;24.334;2023-04-25T01:55:55;2.20;;;1.70;;
57599;SDS011;43426;43.594;24.334;2023-04-25T01:58:21;1.10;;;1.10;;
57599;SDS011;43426;43.594;24.334;2023-04-25T02:00:46;1.55;;;1.45;;
57599;SDS011;43426;43.594;24.334;2023-04-25T02:03:11;2.20;;;1.20;;
57599;SDS011;43426;43.594;24.334;2023-04-25T02:05:37;1.40;;;1.30;;
57599;SDS011;43426;43.594;24.334;2023-04-25T02:08:04;2.65;;;1.40;;
57599;SDS011;43426;43.594;24.334;2023-04-25T02:10:31;2.17;;;1.25;;
57599;SDS011;43426;43.594;24.334;2023-04-25T02:12:57;4.80;;;1.70;;
57599;SDS011;43426;43.594;24.334;2023-04-25T02:15:22;1.40;;;1.30;;
57599;SDS011;43426;43.594;24.334;2023-04-25T02:17:48;1.55;;;1.45;;
57599;SDS011;43426;43.594;24.334;2023-04-25T02:20:13;2.28;;;1.75;;
57599;SDS011;43426;43.594;24.334;2023-04-25T02:22:41;2.30;;;2.20;;
57599;SDS011;43426;43.594;24.334;2023-04-25T02:25:07;1.85;;;1.75;;
57599;SDS011;43426;43.594;24.334;2023-04-25T02:27:34;3.10;;;2.08;;
57599;SDS011;43426;43.594;24.334;2023-04-25T02:29:59;2.63;;;1.73;;
57599;SDS011;43426;43.594;24.334;2023-04-25T02:32:25;1.45;;;1.35;;
57599;SDS011;43426;43.594;24.334;2023-04-25T02:34:51;1.30;;;1.20;;
57599;SDS011;43426;43.594;24.334;2023-04-25T02:37:17;1.13;;;1.02;;
57599;SDS011;43426;43.594;24.334;2023-04-25T02:39:42;1.25;;;1.15;;
57599;SDS011;43426;43.594;24.334;2023-04-25T02:42:08;1.45;;;1.13;;
57599;SDS011;43426;43.594;24.334;2023-04-25T02:46:58;0.95;;;0.95;;
57599;SDS011;43426;43.594;24.334;2023-04-25T02:49:24;1.05;;;1.00;;
57599;SDS011;43426;43.594;24.334;2023-04-25T02:51:49;0.70;;;0.70;;
57599;SDS011;43426;43.594;24.334;2023-04-25T02:54:15;1.70;;;0.95;;
57599;SDS011;43426;43.594;24.334;2023-04-25T02:56:40;1.10;;;1.00;;
57599;SDS011;43426;43.594;24.334;2023-04-25T02:59:06;0.90;;;0.90;;
57599;SDS011;43426;43.594;24.334;2023-04-25T03:01:31;1.00;;;1.00;;
57599;SDS011;43426;43.594;24.334;2023-04-25T03:03:57;0.93;;;0.90;;
57599;SDS011;43426;43.594;24.334;2023-04-25T03:06:22;1.10;;;0.90;;
57599;SDS011;43426;43.594;24.334;2023-04-25T03:08:47;0.82;;;0.82;;
57599;SDS011;43426;43.594;24.334;2023-04-25T03:11:13;0.90;;;0.90;;
57599;SDS011;43426;43.594;24.334;2023-04-25T03:13:38;1.65;;;1.13;;
57599;SDS011;43426;43.594;24.334;2023-04-25T03:16:04;3.53;;;0.90;;
57599;SDS011;43426;43.594;24.334;2023-04-25T03:18:29;0.75;;;0.75;;
57599;SDS011;43426;43.594;24.334;2023-04-25T03:23:20;1.38;;;0.88;;
57599;SDS011;43426;43.594;24.334;2023-04-25T03:25:46;0.82;;;0.80;;
57599;SDS011;43426;43.594;24.334;2023-04-25T03:28:11;1.10;;;1.05;;
57599;SDS011;43426;43.594;24.334;2023-04-25T03:30:37;2.05;;;1.15;;
57599;SDS011;43426;43.594;24.334;2023-04-25T03:33:02;0.70;;;0.70;;
57599;SDS011;43426;43.594;24.334;2023-04-25T03:35:28;1.58;;;1.00;;
57599;SDS011;43426;43.594;24.334;2023-04-25T03:40:18;1.95;;;1.00;;
57599;SDS011;43426;43.594;24.334;2023-04-25T03:42:44;1.40;;;1.30;;
57599;SDS011;43426;43.594;24.334;2023-04-25T03:45:10;1.48;;;1.20;;
57599;SDS011;43426;43.594;24.334;2023-04-25T03:50:01;4.32;;;1.27;;
57599;SDS011;43426;43.594;24.334;2023-04-25T03:52:27;1.30;;;1.20;;
57599;SDS011;43426;43.594;24.334;2023-04-25T03:54:53;1.27;;;1.17;;
57599;SDS011;43426;43.594;24.334;2023-04-25T03:57:18;1.65;;;1.25;;
57599;SDS011;43426;43.594;24.334;2023-04-25T03:59:44;1.42;;;1.27;;
57599;SDS011;43426;43.594;24.334;2023-04-25T04:04:35;3.03;;;1.63;;
57599;SDS011;43426;43.594;24.334;2023-04-25T04:09:26;1.38;;;1.27;;
57599;SDS011;43426;43.594;24.334;2023-04-25T04:11:52;2.00;;;1.70;;
57599;SDS011;43426;43.594;24.334;2023-04-25T04:14:18;2.15;;;1.48;;
57599;SDS011;43426;43.594;24.334;2023-04-25T04:16:43;2.95;;;1.70;;
57599;SDS011;43426;43.594;24.334;2023-04-25T04:19:09;1.30;;;1.20;;
57599;SDS011;43426;43.594;24.334;2023-04-25T04:21:34;2.03;;;1.70;;
57599;SDS011;43426;43.594;24.334;2023-04-25T04:24:02;2.22;;;1.65;;
57599;SDS011;43426;43.594;24.334;2023-04-25T04:26:28;2.88;;;1.38;;
57599;SDS011;43426;43.594;24.334;2023-04-25T04:28:54;1.83;;;1.73;;
57599;SDS011;43426;43.594;24.334;2023-04-25T04:33:46;1.97;;;1.80;;
57599;SDS011;43426;43.594;24.334;2023-04-25T04:36:12;2.42;;;1.70;;
57599;SDS011;43426;43.594;24.334;2023-04-25T04:38:38;4.28;;;1.80;;
57599;SDS011;43426;43.594;24.334;2023-04-25T04:41:03;2.20;;;2.00;;
57599;SDS011;43426;43.594;24.334;2023-04-25T04:45:55;4.43;;;1.88;;
57599;SDS011;43426;43.594;24.334;2023-04-25T04:48:22;2.30;;;2.10;;
57599;SDS011;43426;43.594;24.334;2023-04-25T04:50:48;2.67;;;1.90;;
57599;SDS011;43426;43.594;24.334;2023-04-25T04:53:13;2.17;;;2.05;;
57599;SDS011;43426;43.594;24.334;2023-04-25T04:55:39;2.60;;;2.10;;
57599;SDS011;43426;43.594;24.334;2023-04-25T04:58:06;3.05;;;2.10;;
57599;SDS011;43426;43.594;24.334;2023-04-25T05:00:31;2.92;;;1.98;;
57599;SDS011;43426;43.594;24.334;2023-04-25T05:05:23;3.28;;;2.10;;
57599;SDS011;43426;43.594;24.334;2023-04-25T05:07:49;2.03;;;1.83;;
57599;SDS011;43426;43.594;24.334;2023-04-25T05:10:14;2.88;;;1.98;;
57599;SDS011;43426;43.594;24.334;2023-04-25T05:15:05;2.00;;;1.90;;
57599;SDS011;43426;43.594;24.334;2023-04-25T05:19:57;3.13;;;1.42;;
57599;SDS011;43426;43.594;24.334;2023-04-25T05:24:48;1.67;;;1.58;;
57599;SDS011;43426;43.594;24.334;2023-04-25T05:29:41;2.10;;;2.00;;
57599;SDS011;43426;43.594;24.334;2023-04-25T05:34:32;2.25;;;2.08;;
57599;SDS011;43426;43.594;24.334;2023-04-25T05:39:23;2.20;;;1.85;;
57599;SDS011;43426;43.594;24.334;2023-04-25T05:44:13;2.92;;;2.72;;
57599;SDS011;43426;43.594;24.334;2023-04-25T05:46:40;2.05;;;1.95;;
57599;SDS011;43426;43.594;24.334;2023-04-25T05:51:31;2.65;;;1.92;;
57599;SDS011;43426;43.594;24.334;2023-04-25T05:53:57;2.45;;;2.10;;
57599;SDS011;43426;43.594;24.334;2023-04-25T05:56:22;2.80;;;2.60;;
57599;SDS011;43426;43.594;24.334;2023-04-25T05:58:48;2.67;;;2.28;;
57599;SDS011;43426;43.594;24.334;2023-04-25T06:01:13;2.45;;;2.05;;
57599;SDS011;43426;43.594;24.334;2023-04-25T06:03:39;2.60;;;2.40;;
57599;SDS011;43426;43.594;24.334;2023-04-25T06:06:07;2.67;;;2.30;;
57599;SDS011;43426;43.594;24.334;2023-04-25T06:08:33;3.63;;;2.92;;
57599;SDS011;43426;43.594;24.334;2023-04-25T06:10:58;3.03;;;2.83;;
57599;SDS011;43426;43.594;24.334;2023-04-25T06:13:24;3.00;;;2.80;;
57599;SDS011;43426;43.594;24.334;2023-04-25T06:15:49;3.17;;;2.97;;
57599;SDS011;43426;43.594;24.334;2023-04-25T06:18:15;3.03;;;2.83;;
57599;SDS011;43426;43.594;24.334;2023-04-25T06:20:40;3.40;;;3.20;;
57599;SDS011;43426;43.594;24.334;2023-04-25T06:23:05;3.72;;;3.42;;
57599;SDS011;43426;43.594;24.334;2023-04-25T06:25:31;4.40;;;4.13;;
57599;SDS011;43426;43.594;24.334;2023-04-25T06:30:22;4.38;;;4.07;;
57599;SDS011;43426;43.594;24.334;2023-04-25T06:32:50;3.35;;;3.15;;
57599;SDS011;43426;43.594;24.334;2023-04-25T06:35:16;4.30;;;3.90;;
57599;SDS011;43426;43.594;24.334;2023-04-25T06:37:41;3.92;;;3.20;;
57599;SDS011;43426;43.594;24.334;2023-04-25T06:40:07;3.47;;;3.28;;
57599;SDS011;43426;43.594;24.334;2023-04-25T06:42:33;3.03;;;2.83;;
57599;SDS011;43426;43.594;24.334;2023-04-25T06:44:58;3.47;;;2.72;;
57599;SDS011;43426;43.594;24.334;2023-04-25T06:47:24;3.00;;;2.80;;
57599;SDS011;43426;43.594;24.334;2023-04-25T06:49:49;3.03;;;2.83;;
57599;SDS011;43426;43.594;24.334;2023-04-25T06:52:15;2.95;;;2.75;;
57599;SDS011;43426;43.594;24.334;2023-04-25T06:54:42;3.25;;;3.05;;
57599;SDS011;43426;43.594;24.334;2023-04-25T06:57:08;3.15;;;2.85;;
57599;SDS011;43426;43.594;24.334;2023-04-25T06:59:33;2.80;;;2.60;;
57599;SDS011;43426;43.594;24.334;2023-04-25T07:01:59;2.80;;;2.60;;
57599;SDS011;43426;43.594;24.334;2023-04-25T07:04:24;2.80;;;2.40;;
57599;SDS011;43426;43.594;24.334;2023-04-25T07:06:50;2.40;;;2.20;;
57599;SDS011;43426;43.594;24.334;2023-04-25T07:09:15;4.47;;;2.40;;
57599;SDS011;43426;43.594;24.334;2023-04-25T07:11:41;3.80;;;3.13;;
57599;SDS011;43426;43.594;24.334;2023-04-25T07:14:06;2.47;;;2.28;;
57599;SDS011;43426;43.594;24.334;2023-04-25T07:16:32;2.40;;;2.20;;
57599;SDS011;43426;43.594;24.334;2023-04-25T07:18:57;2.22;;;2.08;;
57599;SDS011;43426;43.594;24.334;2023-04-25T07:21:24;3.17;;;2.67;;
57599;SDS011;43426;43.594;24.334;2023-04-25T07:23:50;2.90;;;2.70;;
57599;SDS011;43426;43.594;24.334;2023-04-25T07:26:16;2.58;;;2.30;;
57599;SDS011;43426;43.594;24.334;2023-04-25T07:28:42;2.17;;;2.08;;
57599;SDS011;43426;43.594;24.334;2023-04-25T07:31:08;2.08;;;1.88;;
57599;SDS011;43426;43.594;24.334;2023-04-25T07:33:33;1.70;;;1.60;;
57599;SDS011;43426;43.594;24.334;2023-04-25T07:36:02;1.67;;;1.58;;
57599;SDS011;43426;43.594;24.334;2023-04-25T07:38:27;2.88;;;1.90;;
57599;SDS011;43426;43.594;24.334;2023-04-25T07:40:53;2.15;;;1.75;;
57599;SDS011;43426;43.594;24.334;2023-04-25T07:43:18;1.50;;;1.40;;
57599;SDS011;43426;43.594;24.334;2023-04-25T07:45:44;1.83;;;1.08;;
57599;SDS011;43426;43.594;24.334;2023-04-25T07:48:09;1.77;;;1.15;;
57599;SDS011;43426;43.594;24.334;2023-04-25T07:50:35;0.90;;;0.80;;
57599;SDS011;43426;43.594;24.334;2023-04-25T07:53:01;1.05;;;1.00;;
57599;SDS011;43426;43.594;24.334;2023-04-25T07:55:26;1.48;;;1.33;;
57599;SDS011;43426;43.594;24.334;2023-04-25T07:57:51;1.42;;;1.33;;
57599;SDS011;43426;43.594;24.334;2023-04-25T08:00:17;2.13;;;1.92;;
57599;SDS011;43426;43.594;24.334;2023-04-25T08:02:43;2.17;;;1.40;;
57599;SDS011;43426;43.594;24.334;2023-04-25T08:05:08;1.92;;;1.17;;
57599;SDS011;43426;43.594;24.334;2023-04-25T08:07:37;1.13;;;1.10;;
57599;SDS011;43426;43.594;24.334;2023-04-25T08:10:04;1.15;;;0.90;;
57599;SDS011;43426;43.594;24.334;2023-04-25T08:12:32;1.10;;;1.00;;
57599;SDS011;43426;43.594;24.334;2023-04-25T08:14:58;0.98;;;0.88;;
57599;SDS011;43426;43.594;24.334;2023-04-25T08:17:23;0.90;;;0.90;;
57599;SDS011;43426;43.594;24.334;2023-04-25T08:19:49;1.20;;;1.10;;
57599;SDS011;43426;43.594;24.334;2023-04-25T08:22:14;1.10;;;1.00;;
57599;SDS011;43426;43.594;24.334;2023-04-25T08:24:40;1.30;;;1.20;;
57599;SDS011;43426;43.594;24.334;2023-04-25T08:27:06;1.60;;;1.02;;
57599;SDS011;43426;43.594;24.334;2023-04-25T08:29:33;1.65;;;1.30;;
57599;SDS011;43426;43.594;24.334;2023-04-25T08:31:59;1.60;;;1.33;;
57599;SDS011;43426;43.594;24.334;2023-04-25T08:34:25;1.00;;;1.00;;
57599;SDS011;43426;43.594;24.334;2023-04-25T08:36:51;2.83;;;1.40;;
57599;SDS011;43426;43.594;24.334;2023-04-25T08:39:17;1.30;;;1.20;;
57599;SDS011;43426;43.594;24.334;2023-04-25T08:41:42;0.90;;;0.90;;
57599;SDS011;43426;43.594;24.334;2023-04-25T08:44:10;1.02;;;1.00;;
57599;SDS011;43426;43.594;24.334;2023-04-25T08:46:37;1.85;;;1.67;;
57599;SDS011;43426;43.594;24.334;2023-04-25T08:49:05;1.73;;;1.63;;
57599;SDS011;43426;43.594;24.334;2023-04-25T08:51:32;1.55;;;1.45;;
57599;SDS011;43426;43.594;24.334;2023-04-25T08:54:01;2.30;;;1.45;;
57599;SDS011;43426;43.594;24.334;2023-04-25T08:56:35;1.80;;;1.70;;
57599;SDS011;43426;43.594;24.334;2023-04-25T08:59:01;2.50;;;1.90;;
57599;SDS011;43426;43.594;24.334;2023-04-25T09:01:28;1.60;;;1.50;;
57599;SDS011;43426;43.594;24.334;2023-04-25T09:03:53;1.92;;;1.80;;
57599;SDS011;43426;43.594;24.334;2023-04-25T09:06:19;1.92;;;1.73;;
57599;SDS011;43426;43.594;24.334;2023-04-25T09:08:44;1.88;;;1.50;;
57599;SDS011;43426;43.594;24.334;2023-04-25T09:11:10;1.80;;;1.70;;
57599;SDS011;43426;43.594;24.334;2023-04-25T09:13:35;1.67;;;1.55;;
57599;SDS011;43426;43.594;24.334;2023-04-25T09:16:01;1.55;;;1.45;;
57599;SDS011;43426;43.594;24.334;2023-04-25T09:18:31;2.30;;;0.93;;
57599;SDS011;43426;43.594;24.334;2023-04-25T09:21:31;2.15;;;0.80;;
57599;SDS011;43426;43.594;24.334;2023-04-25T09:23:50;2.83;;;0.70;;
57599;SDS011;43426;43.594;24.334;2023-04-25T09:26:17;0.65;;;0.40;;
57599;SDS011;43426;43.594;24.334;2023-04-25T09:28:44;0.50;;;0.50;;
57599;SDS011;43426;43.594;24.334;2023-04-25T09:31:11;0.70;;;0.47;;
57599;SDS011;43426;43.594;24.334;2023-04-25T09:33:36;0.50;;;0.50;;
57599;SDS011;43426;43.594;24.334;2023-04-25T09:36:06;0.55;;;0.50;;
57599;SDS011;43426;43.594;24.334;2023-04-25T09:38:40;1.10;;;0.60;;
57599;SDS011;43426;43.594;24.334;2023-04-25T09:41:07;0.55;;;0.55;;
57599;SDS011;43426;43.594;24.334;2023-04-25T09:43:34;0.47;;;0.43;;
57599;SDS011;43426;43.594;24.334;2023-04-25T09:46:00;1.00;;;0.65;;
57599;SDS011;43426;43.594;24.334;2023-04-25T09:48:26;1.23;;;0.45;;
57599;SDS011;43426;43.594;24.334;2023-04-25T09:51:09;0.40;;;0.40;;
57599;SDS011;43426;43.594;24.334;2023-04-25T09:53:39;1.45;;;0.60;;
57599;SDS011;43426;43.594;24.334;2023-04-25T09:56:07;0.82;;;0.70;;
57599;SDS011;43426;43.594;24.334;2023-04-25T09:58:35;1.48;;;0.43;;
57599;SDS011;43426;43.594;24.334;2023-04-25T10:01:01;1.75;;;0.50;;
57599;SDS011;43426;43.594;24.334;2023-04-25T10:03:29;0.75;;;0.70;;
57599;SDS011;43426;43.594;24.334;2023-04-25T10:06:00;0.90;;;0.50;;
57599;SDS011;43426;43.594;24.334;2023-04-25T10:08:37;0.57;;;0.50;;
57599;SDS011;43426;43.594;24.334;2023-04-25T10:11:04;1.75;;;0.50;;
57599;SDS011;43426;43.594;24.334;2023-04-25T10:13:31;1.48;;;0.50;;
57599;SDS011;43426;43.594;24.334;2023-04-25T10:16:00;0.60;;;0.57;;
57599;SDS011;43426;43.594;24.334;2023-04-25T10:18:28;0.70;;;0.70;;
57599;SDS011;43426;43.594;24.334;2023-04-25T10:20:55;0.73;;;0.60;;
57599;SDS011;43426;43.594;24.334;2023-04-25T10:23:22;0.68;;;0.68;;
57599;SDS011;43426;43.594;24.334;2023-04-25T10:25:49;0.75;;;0.50;;
57599;SDS011;43426;43.594;24.334;2023-04-25T10:28:16;0.50;;;0.50;;
57599;SDS011;43426;43.594;24.334;2023-04-25T10:31:01;0.55;;;0.45;;
57599;SDS011;43426;43.594;24.334;2023-04-25T10:33:35;0.50;;;0.50;;
57599;SDS011;43426;43.594;24.334;2023-04-25T10:36:09;0.70;;;0.50;;
57599;SDS011;43426;43.594;24.334;2023-04-25T10:38:38;0.35;;;0.35;;
57599;SDS011;43426;43.594;24.334;2023-04-25T10:41:05;0.60;;;0.55;;
57599;SDS011;43426;43.594;24.334;2023-04-25T10:43:42;0.75;;;0.50;;
57599;SDS011;43426;43.594;24.334;2023-04-25T10:46:18;0.35;;;0.35;;
57599;SDS011;43426;43.594;24.334;2023-04-25T10:48:48;0.70;;;0.50;;
57599;SDS011;43426;43.594;24.334;2023-04-25T10:51:21;0.50;;;0.47;;
57599;SDS011;43426;43.594;24.334;2023-04-25T10:56:20;0.60;;;0.40;;
57599;SDS011;43426;43.594;24.334;2023-04-25T10:58:46;0.32;;;0.32;;
57599;SDS011;43426;43.594;24.334;2023-04-25T11:01:19;0.50;;;0.45;;
57599;SDS011;43426;43.594;24.334;2023-04-25T11:03:46;0.32;;;0.32;;
57599;SDS011;43426;43.594;24.334;2023-04-25T11:06:26;0.40;;;0.32;;
57599;SDS011;43426;43.594;24.334;2023-04-25T11:08:54;2.30;;;0.88;;
57599;SDS011;43426;43.594;24.334;2023-04-25T11:11:20;3.92;;;0.70;;
57599;SDS011;43426;43.594;24.334;2023-04-25T11:13:49;0.50;;;0.50;;
57599;SDS011;43426;43.594;24.334;2023-04-25T11:16:15;0.43;;;0.40;;
57599;SDS011;43426;43.594;24.334;2023-04-25T11:18:41;0.63;;;0.50;;
57599;SDS011;43426;43.594;24.334;2023-04-25T11:21:08;0.73;;;0.55;;
57599;SDS011;43426;43.594;24.334;2023-04-25T11:23:33;0.70;;;0.47;;
57599;SDS011;43426;43.594;24.334;2023-04-25T11:25:59;0.82;;;0.50;;
57599;SDS011;43426;43.594;24.334;2023-04-25T11:28:26;0.70;;;0.32;;
57599;SDS011;43426;43.594;24.334;2023-04-25T11:30:52;1.08;;;0.50;;
57599;SDS011;43426;43.594;24.334;2023-04-25T11:33:17;0.85;;;0.68;;
57599;SDS011;43426;43.594;24.334;2023-04-25T11:35:47;0.57;;;0.50;;
57599;SDS011;43426;43.594;24.334;2023-04-25T11:38:13;1.30;;;1.20;;
57599;SDS011;43426;43.594;24.334;2023-04-25T11:40:38;1.67;;;1.05;;
57599;SDS011;43426;43.594;24.334;2023-04-25T11:43:04;0.70;;;0.50;;
57599;SDS011;43426;43.594;24.334;2023-04-25T11:45:29;1.58;;;0.70;;
57599;SDS011;43426;43.594;24.334;2023-04-25T11:47:56;0.50;;;0.50;;
57599;SDS011;43426;43.594;24.334;2023-04-25T11:50:21;0.65;;;0.63;;
57599;SDS011;43426;43.594;24.334;2023-04-25T11:52:47;1.75;;;0.60;;
57599;SDS011;43426;43.594;24.334;2023-04-25T11:55:17;0.30;;;0.30;;
57599;SDS011;43426;43.594;24.334;2023-04-25T11:57:44;0.50;;;0.50;;
57599;SDS011;43426;43.594;24.334;2023-04-25T12:00:12;0.52;;;0.52;;
57599;SDS011;43426;43.594;24.334;2023-04-25T12:02:44;2.60;;;0.60;;
57599;SDS011;43426;43.594;24.334;2023-04-25T12:05:16;2.20;;;0.60;;
57599;SDS011;43426;43.594;24.334;2023-04-25T12:07:42;1.55;;;0.50;;
57599;SDS011;43426;43.594;24.334;2023-04-25T12:10:08;2.35;;;0.80;;
57599;SDS011;43426;43.594;24.334;2023-04-25T12:12:35;4.57;;;1.20;;
57599;SDS011;43426;43.594;24.334;2023-04-25T12:15:08;2.33;;;1.25;;
57599;SDS011;43426;43.594;24.334;2023-04-25T12:17:34;1.63;;;1.48;;
57599;SDS011;43426;43.594;24.334;2023-04-25T12:22:30;3.63;;;1.98;;
57599;SDS011;43426;43.594;24.334;2023-04-25T12:27:23;5.15;;;2.03;;
57599;SDS011;43426;43.594;24.334;2023-04-25T12:29:52;2.15;;;1.80;;
57599;SDS011;43426;43.594;24.334;2023-04-25T12:32:19;3.92;;;1.83;;
57599;SDS011;43426;43.594;24.334;2023-04-25T12:34:45;2.80;;;1.80;;
57599;SDS011;43426;43.594;24.334;2023-04-25T12:37:10;1.60;;;1.50;;
57599;SDS011;43426;43.594;24.334;2023-04-25T12:42:01;1.55;;;1.45;;
57599;SDS011;43426;43.594;24.334;2023-04-25T12:44:28;1.33;;;1.23;;
57599;SDS011;43426;43.594;24.334;2023-04-25T12:46:53;1.15;;;1.05;;
57599;SDS011;43426;43.594;24.334;2023-04-25T12:49:19;1.50;;;0.95;;
57599;SDS011;43426;43.594;24.334;2023-04-25T12:51:45;3.95;;;1.10;;
57599;SDS011;43426;43.594;24.334;2023-04-25T12:54:11;1.10;;;1.10;;
57599;SDS011;43426;43.594;24.334;2023-04-25T12:56:37;4.05;;;1.08;;
57599;SDS011;43426;43.594;24.334;2023-04-25T12:59:03;1.05;;;0.93;;
57599;SDS011;43426;43.594;24.334;2023-04-25T13:03:54;2.35;;;1.10;;
57599;SDS011;43426;43.594;24.334;2023-04-25T13:06:20;1.23;;;1.10;;
57599;SDS011;43426;43.594;24.334;2023-04-25T13:08:46;1.33;;;1.10;;
57599;SDS011;43426;43.594;24.334;2023-04-25T13:11:12;1.23;;;1.13;;
57599;SDS011;43426;43.594;24.334;2023-04-25T13:13:39;2.95;;;1.50;;
57599;SDS011;43426;43.594;24.334;2023-04-25T13:16:05;1.23;;;1.13;;
57599;SDS011;43426;43.594;24.334;2023-04-25T13:18:31;1.73;;;1.63;;
57599;SDS011;43426;43.594;24.334;2023-04-25T13:23:22;1.70;;;1.60;;
57599;SDS011;43426;43.594;24.334;2023-04-25T13:25:51;1.50;;;1.35;;
57599;SDS011;43426;43.594;24.334;2023-04-25T13:30:42;1.10;;;1.10;;
57599;SDS011;43426;43.594;24.334;2023-04-25T13:33:07;0.77;;;0.77;;
57599;SDS011;43426;43.594;24.334;2023-04-25T13:37:59;0.43;;;0.40;;
57599;SDS011;43426;43.594;24.334;2023-04-25T13:42:51;0.30;;;0.30;;
57599;SDS011;43426;43.594;24.334;2023-04-25T13:47:42;0.20;;;0.20;;
57599;SDS011;43426;43.594;24.334;2023-04-25T13:50:07;1.98;;;0.30;;
57599;SDS011;43426;43.594;24.334;2023-04-25T13:52:33;0.20;;;0.20;;
57599;SDS011;43426;43.594;24.334;2023-04-25T13:54:59;0.10;;;0.10;;
57599;SDS011;43426;43.594;24.334;2023-04-25T13:57:24;0.10;;;0.10;;
57599;SDS011;43426;43.594;24.334;2023-04-25T13:59:51;0.15;;;0.15;;
57599;SDS011;43426;43.594;24.334;2023-04-25T14:02:17;0.40;;;0.30;;
57599;SDS011;43426;43.594;24.334;2023-04-25T14:07:08;0.20;;;0.20;;
57599;SDS011;43426;43.594;24.334;2023-04-25T14:09:33;0.40;;;0.40;;
57599;SDS011;43426;43.594;24.334;2023-04-25T14:11:59;0.43;;;0.43;;
57599;SDS011;43426;43.594;24.334;2023-04-25T14:14:25;0.45;;;0.40;;
57599;SDS011;43426;43.594;24.334;2023-04-25T14:19:18;0.52;;;0.52;;
57599;SDS011;43426;43.594;24.334;2023-04-25T14:21:44;1.15;;;0.55;;
57599;SDS011;43426;43.594;24.334;2023-04-25T14:24:09;0.60;;;0.60;;
57599;SDS011;43426;43.594;24.334;2023-04-25T14:26:38;0.50;;;0.50;;
57599;SDS011;43426;43.594;24.334;2023-04-25T14:31:30;0.97;;;0.60;;
57599;SDS011;43426;43.594;24.334;2023-04-25T14:36:21;0.80;;;0.80;;
57599;SDS011;43426;43.594;24.334;2023-04-25T14:38:47;0.65;;;0.65;;
57599;SDS011;43426;43.594;24.334;2023-04-25T14:41:12;0.60;;;0.60;;
57599;SDS011;43426;43.594;24.334;2023-04-25T14:43:38;0.60;;;0.60;;
57599;SDS011;43426;43.594;24.334;2023-04-25T14:46:05;0.50;;;0.50;;
57599;SDS011;43426;43.594;24.334;2023-04-25T14:50:56;0.68;;;0.60;;
57599;SDS011;43426;43.594;24.334;2023-04-25T14:53:22;1.08;;;0.70;;
57599;SDS011;43426;43.594;24.334;2023-04-25T14:55:48;0.60;;;0.60;;
57599;SDS011;43426;43.594;24.334;2023-04-25T15:00:39;0.93;;;0.90;;
57599;SDS011;43426;43.594;24.334;2023-04-25T15:03:04;5.45;;;0.90;;
57599;SDS011;43426;43.594;24.334;2023-04-25T15:07:55;2.47;;;1.00;;
57599;SDS011;43426;43.594;24.334;2023-04-25T15:10:21;0.93;;;0.90;;
57599;SDS011;43426;43.594;24.334;2023-04-25T15:12:47;0.90;;;0.90;;
57599;SDS011;43426;43.594;24.334;2023-04-25T15:15:13;1.40;;;1.27;;
57599;SDS011;43426;43.594;24.334;2023-04-25T15:17:42;1.40;;;1.30;;
57599;SDS011;43426;43.594;24.334;2023-04-25T15:20:11;4.00;;;1.30;;
57599;SDS011;43426;43.594;24.334;2023-04-25T15:22:38;1.30;;;1.30;;
57599;SDS011;43426;43.594;24.334;2023-04-25T15:25:05;1.30;;;1.20;;
57599;SDS011;43426;43.594;24.334;2023-04-25T15:27:33;1.40;;;1.30;;
57599;SDS011;43426;43.594;24.334;2023-04-25T15:30:08;1.52;;;1.42;;
57599;SDS011;43426;43.594;24.334;2023-04-25T15:32:36;1.20;;;1.20;;
57599;SDS011;43426;43.594;24.334;2023-04-25T15:37:34;1.70;;;1.60;;
57599;SDS011;43426;43.594;24.334;2023-04-25T15:40:10;1.45;;;1.35;;
57599;SDS011;43426;43.594;24.334;2023-04-25T15:42:40;1.60;;;1.50;;
57599;SDS011;43426;43.594;24.334;2023-04-25T15:45:08;1.60;;;1.50;;
57599;SDS011;43426;43.594;24.334;2023-04-25T15:47:35;1.58;;;1.48;;
57599;SDS011;43426;43.594;24.334;2023-04-25T15:50:02;2.17;;;1.98;;
57599;SDS011;43426;43.594;24.334;2023-04-25T15:52:30;1.65;;;1.55;;
57599;SDS011;43426;43.594;24.334;2023-04-25T15:57:21;2.13;;;2.03;;
57599;SDS011;43426;43.594;24.334;2023-04-25T16:02:13;2.30;;;2.15;;
57599;SDS011;43426;43.594;24.334;2023-04-25T16:07:04;3.45;;;3.25;;
57599;SDS011;43426;43.594;24.334;2023-04-25T16:09:30;3.75;;;3.45;;
57599;SDS011;43426;43.594;24.334;2023-04-25T16:11:57;3.72;;;3.42;;
57599;SDS011;43426;43.594;24.334;2023-04-25T16:16:51;4.95;;;3.00;;
57599;SDS011;43426;43.594;24.334;2023-04-25T16:19:16;3.20;;;3.00;;
57599;SDS011;43426;43.594;24.334;2023-04-25T16:24:08;4.03;;;3.22;;
57599;SDS011;43426;43.594;24.334;2023-04-25T16:26:34;5.43;;;4.07;;